createdAt,value
2022-12-17T00:00:02.284Z,73.20
2022-12-17T00:02:50.445Z,73.30
2022-12-17T00:05:36.039Z,73.30
2022-12-17T00:08:21.717Z,73.40
2022-12-17T00:11:07.074Z,73.60
2022-12-17T00:13:52.586Z,73.70
2022-12-17T00:16:38.661Z,73.70
2022-12-17T00:19:23.822Z,73.70
2022-12-17T00:22:09.472Z,73.60
2022-12-17T00:24:56.364Z,73.60
2022-12-17T00:27:41.754Z,73.60
2022-12-17T00:30:28.109Z,73.40
2022-12-17T00:33:13.730Z,73.60
2022-12-17T00:35:58.993Z,73.80
2022-12-17T00:38:44.192Z,73.80
2022-12-17T00:41:29.739Z,74.40
2022-12-17T00:44:15.168Z,74.80
2022-12-17T00:47:01.081Z,74.70
2022-12-17T00:49:46.347Z,74.80
2022-12-17T00:52:31.750Z,74.80
2022-12-17T00:55:17.419Z,74.80
2022-12-17T00:58:02.800Z,75.30
2022-12-17T01:00:48.086Z,75.60
2022-12-17T01:03:33.851Z,75.80
2022-12-17T01:06:23.444Z,75.70
2022-12-17T01:09:09.063Z,75.80
2022-12-17T01:11:56.544Z,76.10
2022-12-17T01:14:43.292Z,76.10
2022-12-17T01:17:29.049Z,76.20
2022-12-17T01:20:15.148Z,76.00
2022-12-17T01:23:00.705Z,75.80
2022-12-17T01:25:47.316Z,75.70
2022-12-17T01:28:56.002Z,75.60
2022-12-17T01:31:43.144Z,75.50
2022-12-17T01:34:29.155Z,75.40
2022-12-17T01:37:14.604Z,75.30
2022-12-17T01:40:00.451Z,75.30
2022-12-17T01:42:46.191Z,75.30
2022-12-17T01:45:32.762Z,75.30
2022-12-17T01:48:21.845Z,75.30
2022-12-17T01:51:12.132Z,75.20
2022-12-17T01:54:03.210Z,75.50
2022-12-17T01:56:50.312Z,75.80
2022-12-17T01:59:42.717Z,75.70
2022-12-17T02:02:33.271Z,75.60
2022-12-17T02:05:18.788Z,75.60
2022-12-17T02:08:43.837Z,75.40
2022-12-17T02:11:50.263Z,75.30
2022-12-17T02:14:49.799Z,75.20
2022-12-17T02:17:42.870Z,75.20
2022-12-17T02:20:50.884Z,75.30
2022-12-17T02:23:36.684Z,75.40
2022-12-17T02:26:58.227Z,75.40
2022-12-17T02:29:46.674Z,75.40
2022-12-17T02:32:34.153Z,75.70
2022-12-17T02:35:25.673Z,75.70
2022-12-17T02:38:10.886Z,76.00
2022-12-17T02:40:57.412Z,76.20
2022-12-17T02:43:43.728Z,76.30
2022-12-17T02:46:31.548Z,76.50
2022-12-17T02:49:18.050Z,76.50
2022-12-17T02:52:04.192Z,76.50
2022-12-17T02:54:51.442Z,76.50
2022-12-17T02:57:42.210Z,76.40
2022-12-17T03:00:30.258Z,76.40
2022-12-17T03:03:15.858Z,76.40
2022-12-17T03:06:01.861Z,76.30
2022-12-17T03:08:47.630Z,76.20
2022-12-17T03:11:32.801Z,76.00
2022-12-17T03:14:18.426Z,75.80
2022-12-17T03:17:04.005Z,75.60
2022-12-17T03:19:49.856Z,75.50
2022-12-17T03:22:35.544Z,75.50
2022-12-17T03:25:20.961Z,75.30
2022-12-17T03:28:06.805Z,75.40
2022-12-17T03:30:56.767Z,75.50
2022-12-17T03:33:42.886Z,75.80
2022-12-17T03:36:28.181Z,76.00
2022-12-17T03:39:13.743Z,76.20
2022-12-17T03:41:58.917Z,76.20
2022-12-17T03:44:44.385Z,76.50
2022-12-17T03:47:30.483Z,76.50
2022-12-17T03:50:15.758Z,76.60
2022-12-17T03:53:01.699Z,76.70
2022-12-17T03:55:47.290Z,76.80
2022-12-17T03:58:32.890Z,76.60
2022-12-17T04:01:20.250Z,76.50
2022-12-17T04:04:05.501Z,76.50
2022-12-17T04:06:52.086Z,76.50
2022-12-17T04:09:37.492Z,76.60
2022-12-17T04:12:23.104Z,76.70
2022-12-17T04:15:08.420Z,76.60
2022-12-17T04:17:53.882Z,76.80
2022-12-17T04:20:39.687Z,76.80
2022-12-17T04:23:27.262Z,76.80
2022-12-17T04:26:12.916Z,76.90
2022-12-17T04:28:58.677Z,76.90
2022-12-17T04:31:44.274Z,77.10
2022-12-17T04:34:29.870Z,77.20
2022-12-17T04:37:15.378Z,77.40
2022-12-17T04:40:00.709Z,77.40
2022-12-17T04:42:46.057Z,77.50
2022-12-17T04:45:31.755Z,77.70
2022-12-17T04:48:22.688Z,77.90
2022-12-17T04:51:08.490Z,78.20
2022-12-17T04:53:54.079Z,78.50
2022-12-17T04:56:39.956Z,78.60
2022-12-17T04:59:25.332Z,78.50
2022-12-17T05:02:11.049Z,78.60
2022-12-17T05:04:57.052Z,78.70
2022-12-17T05:07:42.589Z,78.60
2022-12-17T05:10:28.190Z,78.50
2022-12-17T05:13:18.260Z,78.30
2022-12-17T05:16:03.796Z,78.30
2022-12-17T05:18:49.343Z,78.40
2022-12-17T05:21:34.912Z,78.70
2022-12-17T05:24:20.432Z,78.80
2022-12-17T05:27:06.561Z,78.80
2022-12-17T05:29:51.992Z,78.80
2022-12-17T05:32:37.446Z,78.80
2022-12-17T05:35:23.198Z,78.60
2022-12-17T05:38:08.615Z,78.60
2022-12-17T05:40:54.143Z,78.50
2022-12-17T05:43:39.788Z,78.40
2022-12-17T05:46:25.545Z,78.40
2022-12-17T05:49:11.526Z,78.40
2022-12-17T05:51:57.025Z,78.40
2022-12-17T05:54:42.474Z,78.40
2022-12-17T05:57:27.782Z,78.30
2022-12-17T06:00:13.079Z,78.20
2022-12-17T06:02:58.749Z,78.10
2022-12-17T06:05:44.344Z,77.90
2022-12-17T06:08:29.992Z,77.90
2022-12-17T06:11:18.196Z,77.90
2022-12-17T06:14:03.602Z,78.00
2022-12-17T06:16:49.095Z,78.00
2022-12-17T06:19:34.511Z,78.10
2022-12-17T06:22:19.822Z,78.10
2022-12-17T06:25:05.198Z,78.10
2022-12-17T06:27:50.494Z,78.10
2022-12-17T06:30:36.169Z,78.00
2022-12-17T06:33:26.583Z,78.00
2022-12-17T06:36:19.679Z,78.00
2022-12-17T06:39:05.534Z,78.00
2022-12-17T06:41:50.999Z,78.10
2022-12-17T06:44:36.740Z,78.10
2022-12-17T06:47:22.218Z,78.30
2022-12-17T06:50:07.829Z,78.40
2022-12-17T06:52:53.407Z,78.50
2022-12-17T06:55:39.028Z,78.60
2022-12-17T06:58:24.440Z,78.70
2022-12-17T07:01:10.659Z,78.60
2022-12-17T07:03:56.062Z,78.60
2022-12-17T07:06:41.548Z,78.70
2022-12-17T07:09:27.125Z,78.50
2022-12-17T07:12:12.636Z,78.50
2022-12-17T07:14:57.918Z,78.50
2022-12-17T07:17:43.432Z,78.70
2022-12-17T07:20:29.575Z,78.80
2022-12-17T07:23:15.739Z,78.90
2022-12-17T07:26:21.264Z,79.00
2022-12-17T07:29:06.679Z,79.00
2022-12-17T07:31:52.042Z,79.10
2022-12-17T07:34:37.710Z,79.10
2022-12-17T07:37:23.159Z,79.20
2022-12-17T07:40:08.631Z,79.10
2022-12-17T07:42:54.213Z,78.80
2022-12-17T07:45:39.838Z,78.80
2022-12-17T07:48:46.192Z,78.80
2022-12-17T07:51:31.824Z,78.70
2022-12-17T07:54:17.157Z,78.60
2022-12-17T07:57:02.763Z,78.60
2022-12-17T07:59:48.261Z,78.70
2022-12-17T08:02:33.861Z,78.80
2022-12-17T08:05:19.452Z,78.90
2022-12-17T08:08:04.951Z,78.90
2022-12-17T08:10:50.286Z,78.80
2022-12-17T08:13:36.125Z,78.70
2022-12-17T08:16:22.043Z,78.80
2022-12-17T08:19:07.867Z,78.80
2022-12-17T08:21:57.387Z,78.90
2022-12-17T08:24:42.983Z,79.00
2022-12-17T08:27:28.429Z,79.00
2022-12-17T08:30:14.113Z,78.80
2022-12-17T08:32:59.604Z,79.00
2022-12-17T08:35:45.191Z,79.20
2022-12-17T08:38:30.460Z,79.20
2022-12-17T08:41:18.609Z,79.20
2022-12-17T08:44:21.722Z,79.20
2022-12-17T08:47:07.217Z,79.30
2022-12-17T08:49:52.949Z,79.40
2022-12-17T08:52:38.497Z,79.10
2022-12-17T08:55:24.600Z,79.20
2022-12-17T08:58:17.354Z,79.20
2022-12-17T09:01:03.743Z,78.90
2022-12-17T09:03:49.261Z,78.70
2022-12-17T09:06:45.263Z,78.80
2022-12-17T09:09:31.077Z,78.70
2022-12-17T09:12:16.300Z,78.70
2022-12-17T09:15:01.973Z,78.70
2022-12-17T09:17:47.611Z,78.60
2022-12-17T09:20:33.081Z,78.30
2022-12-17T09:23:18.509Z,78.40
2022-12-17T09:26:15.028Z,78.30
2022-12-17T09:29:00.993Z,78.40
2022-12-17T09:31:46.601Z,78.40
2022-12-17T09:34:32.034Z,77.70
2022-12-17T09:37:17.560Z,78.10
2022-12-17T09:40:02.887Z,77.90
2022-12-17T09:43:00.389Z,77.60
2022-12-17T09:45:49.389Z,77.40
2022-12-17T09:48:37.838Z,77.40
2022-12-17T09:51:23.679Z,77.40
2022-12-17T09:54:11.176Z,77.50
2022-12-17T09:56:59.214Z,77.90
2022-12-17T09:59:52.179Z,78.20
2022-12-17T10:02:47.447Z,77.70
2022-12-17T10:05:49.510Z,77.50
2022-12-17T10:08:38.773Z,77.10
2022-12-17T10:11:47.978Z,77.10
2022-12-17T10:14:40.799Z,77.20
2022-12-17T10:17:39.344Z,77.00
2022-12-17T10:20:40.669Z,77.20
2022-12-17T10:23:26.092Z,77.30
2022-12-17T10:26:14.202Z,77.30
2022-12-17T10:29:00.131Z,77.30
2022-12-17T10:31:49.826Z,77.50
2022-12-17T10:34:41.416Z,76.70
2022-12-17T10:37:38.273Z,76.90
2022-12-17T10:40:58.372Z,77.10
2022-12-17T10:43:45.254Z,77.40
2022-12-17T10:46:40.389Z,77.30
2022-12-17T10:49:32.516Z,77.10
2022-12-17T10:52:37.815Z,77.20
2022-12-17T10:55:24.863Z,77.20
2022-12-17T10:58:11.097Z,77.20
2022-12-17T11:00:58.478Z,77.20
2022-12-17T11:03:55.267Z,77.50
2022-12-17T11:06:48.781Z,77.40
2022-12-17T11:09:50.274Z,77.00
2022-12-17T11:12:38.402Z,76.70
2022-12-17T11:15:56.453Z,76.20
2022-12-17T11:18:49.336Z,76.60
2022-12-17T11:21:40.637Z,76.20
2022-12-17T11:24:33.594Z,76.50
2022-12-17T11:27:26.087Z,76.40
2022-12-17T11:30:12.271Z,75.90
2022-12-17T11:33:19.513Z,75.30
2022-12-17T11:36:05.038Z,75.20
2022-12-17T11:39:22.363Z,75.30
2022-12-17T11:42:27.753Z,75.30
2022-12-17T11:45:35.387Z,74.90
2022-12-17T11:48:31.486Z,75.00
2022-12-17T11:51:21.661Z,75.70
2022-12-17T11:54:19.235Z,75.30
2022-12-17T11:57:10.238Z,75.10
2022-12-17T12:00:28.899Z,74.90
2022-12-17T12:03:30.017Z,75.00
2022-12-17T12:06:21.199Z,74.80
2022-12-17T12:09:40.739Z,74.60
2022-12-17T12:12:38.293Z,74.60
2022-12-17T12:15:54.612Z,74.30
2022-12-17T12:18:43.367Z,74.10
2022-12-17T12:21:50.637Z,74.30
2022-12-17T12:24:48.021Z,74.50
2022-12-17T12:27:43.130Z,75.00
2022-12-17T12:30:38.588Z,74.70
2022-12-17T12:33:56.329Z,74.70
2022-12-17T12:36:45.914Z,75.10
2022-12-17T12:39:36.296Z,74.60
2022-12-17T12:42:43.928Z,75.30
2022-12-17T12:45:51.278Z,74.30
2022-12-17T12:48:47.106Z,74.00
2022-12-17T12:51:42.085Z,73.60
2022-12-17T12:54:48.866Z,73.90
2022-12-17T12:57:52.645Z,73.20
2022-12-17T13:00:53.506Z,72.10
2022-12-17T13:03:45.081Z,71.40
2022-12-17T13:06:14.183Z,71.30
2022-12-17T13:08:41.270Z,71.60
2022-12-17T13:11:36.524Z,72.30
2022-12-17T13:14:18.808Z,73.90
2022-12-17T13:16:48.583Z,72.00
2022-12-17T13:19:36.486Z,70.90
2022-12-17T13:22:21.697Z,70.20
2022-12-17T13:24:55.173Z,69.20
2022-12-17T13:27:35.913Z,68.90
2022-12-17T13:30:18.018Z,69.30
2022-12-17T13:32:56.901Z,69.40
2022-12-17T13:36:01.495Z,68.90
2022-12-17T13:38:43.354Z,69.10
2022-12-17T13:41:13.853Z,69.70
2022-12-17T13:43:49.282Z,70.20
2022-12-17T13:46:34.710Z,70.70
2022-12-17T13:49:04.068Z,71.30
2022-12-17T13:51:34.080Z,71.60
2022-12-17T13:54:03.221Z,71.40
2022-12-17T13:56:32.995Z,71.20
2022-12-17T13:59:08.419Z,71.40
2022-12-17T14:01:48.754Z,71.70
2022-12-17T14:04:21.575Z,71.80
2022-12-17T14:06:49.200Z,72.10
2022-12-17T14:09:21.331Z,72.50
2022-12-17T14:12:08.665Z,72.70
2022-12-17T14:14:40.328Z,72.80
2022-12-17T14:17:14.719Z,72.90
2022-12-17T14:19:41.799Z,73.00
2022-12-17T14:22:16.510Z,73.20
2022-12-17T14:24:43.466Z,73.50
2022-12-17T14:27:31.924Z,73.80
2022-12-17T14:29:59.250Z,73.90
2022-12-17T14:32:35.135Z,73.80
2022-12-17T14:35:02.731Z,73.70
2022-12-17T14:37:30.303Z,73.60
2022-12-17T14:40:02.638Z,73.80
2022-12-17T14:42:30.010Z,74.00
2022-12-17T14:45:06.843Z,74.10
2022-12-17T14:47:36.612Z,74.10
2022-12-17T14:50:12.404Z,74.20
2022-12-17T14:52:50.076Z,74.20
2022-12-17T14:55:57.317Z,74.30
2022-12-17T14:58:26.070Z,74.40
2022-12-17T15:00:57.241Z,74.70
2022-12-17T15:03:31.913Z,75.00
2022-12-17T15:06:02.316Z,75.20
2022-12-17T15:08:35.664Z,75.20
2022-12-17T15:11:03.498Z,75.70
2022-12-17T15:13:30.267Z,75.70
2022-12-17T15:15:57.557Z,75.80
2022-12-17T15:18:24.610Z,75.60
2022-12-17T15:20:52.070Z,75.50
2022-12-17T15:23:22.056Z,75.40
2022-12-17T15:25:51.173Z,75.30
2022-12-17T15:28:19.327Z,75.30
2022-12-17T15:30:47.016Z,75.40
2022-12-17T15:33:14.422Z,75.50
2022-12-17T15:35:41.853Z,75.50
2022-12-17T15:38:11.195Z,75.60
2022-12-17T15:40:38.508Z,75.60
2022-12-17T15:43:11.265Z,75.50
2022-12-17T15:45:43.412Z,75.50
2022-12-17T15:48:12.223Z,75.50
2022-12-17T15:50:39.156Z,75.60
2022-12-17T15:53:06.381Z,75.60
2022-12-17T15:55:33.302Z,75.60
2022-12-17T15:58:00.036Z,75.60
2022-12-17T16:00:26.926Z,75.50
2022-12-17T16:02:53.980Z,75.40
2022-12-17T16:05:22.193Z,75.60
2022-12-17T16:07:50.303Z,75.40
2022-12-17T16:10:17.974Z,75.40
2022-12-17T16:12:45.194Z,75.50
2022-12-17T16:15:13.064Z,75.60
2022-12-17T16:17:40.094Z,75.80
2022-12-17T16:20:07.794Z,76.10
2022-12-17T16:22:34.734Z,76.10
2022-12-17T16:25:02.191Z,76.20
2022-12-17T16:27:29.084Z,76.10
2022-12-17T16:29:55.961Z,76.10
2022-12-17T16:32:22.892Z,76.10
2022-12-17T16:34:49.665Z,76.10
2022-12-17T16:37:16.564Z,76.20
2022-12-17T16:39:43.328Z,76.30
2022-12-17T16:42:11.540Z,76.40
2022-12-17T16:44:38.359Z,76.40
2022-12-17T16:47:05.287Z,76.50
2022-12-17T16:49:32.420Z,76.50
2022-12-17T16:51:59.607Z,76.60
2022-12-17T16:54:29.336Z,76.60
2022-12-17T16:56:56.533Z,76.60
2022-12-17T16:59:23.635Z,76.70
2022-12-17T17:01:52.218Z,76.70
2022-12-17T17:04:22.723Z,76.70
2022-12-17T17:06:51.852Z,76.70
2022-12-17T17:09:19.342Z,76.50
2022-12-17T17:11:51.145Z,76.60
2022-12-17T17:14:19.636Z,76.60
2022-12-17T17:16:46.458Z,76.60
2022-12-17T17:19:13.324Z,76.50
2022-12-17T17:21:42.326Z,76.40
2022-12-17T17:24:20.866Z,76.10
2022-12-17T17:26:48.869Z,75.70
2022-12-17T17:29:15.712Z,75.80
2022-12-17T17:34:29.407Z,76.00
2022-12-17T17:36:56.245Z,76.20
2022-12-17T17:39:23.100Z,76.40
2022-12-17T17:41:49.916Z,76.60
2022-12-17T17:44:16.742Z,76.70
2022-12-17T17:46:43.675Z,76.70
2022-12-17T17:49:11.794Z,76.70
2022-12-17T17:54:29.698Z,76.60
2022-12-17T17:56:56.676Z,76.80
2022-12-17T17:59:29.495Z,76.90
2022-12-17T18:02:00.451Z,77.00
2022-12-17T18:04:27.988Z,77.20
2022-12-17T18:09:42.260Z,77.50
2022-12-17T18:12:27.660Z,77.70
2022-12-17T18:17:41.366Z,78.00
2022-12-17T18:20:09.590Z,78.00
2022-12-17T18:22:36.768Z,78.10
2022-12-17T18:25:03.881Z,78.10
2022-12-17T18:27:30.668Z,78.00
2022-12-17T18:29:57.501Z,78.00
2022-12-17T18:32:24.328Z,77.90
2022-12-17T18:34:51.168Z,77.80
2022-12-17T18:37:18.078Z,77.60
2022-12-17T18:39:44.847Z,77.30
2022-12-17T18:42:30.164Z,77.30
2022-12-17T18:44:56.917Z,77.30
2022-12-17T18:47:25.527Z,77.20
2022-12-17T18:49:52.492Z,77.10
2022-12-17T18:52:19.491Z,76.90
2022-12-17T18:54:46.340Z,77.00
2022-12-17T18:57:13.632Z,76.70
2022-12-17T18:59:41.303Z,76.70
2022-12-17T19:02:14.757Z,76.50
2022-12-17T19:04:42.335Z,76.60
2022-12-17T19:07:09.527Z,76.70
2022-12-17T19:09:38.473Z,76.90
2022-12-17T19:12:09.865Z,77.10
2022-12-17T19:14:37.573Z,77.30
2022-12-17T19:17:05.860Z,77.50
2022-12-17T19:19:33.537Z,77.60
2022-12-17T19:22:00.513Z,77.60
2022-12-17T19:24:27.560Z,77.50
2022-12-17T19:26:54.452Z,77.40
2022-12-17T19:29:21.451Z,77.20
2022-12-17T19:31:48.296Z,77.00
2022-12-17T19:34:18.247Z,76.80
2022-12-17T19:36:45.776Z,76.80
2022-12-17T19:39:15.108Z,76.70
2022-12-17T19:41:41.925Z,76.70
2022-12-17T19:44:12.878Z,76.90
2022-12-17T19:46:40.512Z,77.00
2022-12-17T19:49:08.585Z,76.90
2022-12-17T19:51:38.931Z,76.90
2022-12-17T19:54:08.870Z,76.70
2022-12-17T19:56:36.732Z,76.60
2022-12-17T19:59:09.488Z,76.60
2022-12-17T20:01:40.334Z,76.70
2022-12-17T20:04:07.442Z,77.00
2022-12-17T20:06:35.457Z,77.30
2022-12-17T20:09:05.074Z,77.60
2022-12-17T20:11:35.367Z,77.80
2022-12-17T20:14:13.647Z,77.90
2022-12-17T20:16:46.899Z,77.90
2022-12-17T20:19:17.386Z,78.00
2022-12-17T20:21:44.685Z,78.00
2022-12-17T20:24:12.178Z,78.00
2022-12-17T20:26:40.213Z,78.00
2022-12-17T20:29:07.875Z,78.10
2022-12-17T20:31:35.902Z,78.10
2022-12-17T20:34:08.106Z,78.10
2022-12-17T20:36:35.510Z,77.90
2022-12-17T20:39:02.783Z,77.70
2022-12-17T20:41:30.750Z,77.60
2022-12-17T20:43:58.860Z,77.50
2022-12-17T20:46:25.952Z,77.30
2022-12-17T20:48:53.968Z,77.20
2022-12-17T20:51:26.427Z,76.70
2022-12-17T20:53:54.808Z,76.70
2022-12-17T20:56:27.439Z,76.80
2022-12-17T20:59:00.579Z,77.10
2022-12-17T21:01:29.432Z,77.20
2022-12-17T21:03:58.055Z,77.30
2022-12-17T21:06:35.214Z,76.80
2022-12-17T21:09:02.928Z,76.70
2022-12-17T21:11:31.422Z,77.00
2022-12-17T21:13:59.198Z,77.10
2022-12-17T21:16:30.182Z,76.90
2022-12-17T21:19:01.695Z,76.90
2022-12-17T21:21:31.645Z,77.00
2022-12-17T21:23:59.398Z,77.10
2022-12-17T21:26:30.027Z,77.10
2022-12-17T21:28:59.818Z,77.10
2022-12-17T21:31:32.831Z,77.00
2022-12-17T21:34:02.900Z,76.90
2022-12-17T21:36:31.895Z,76.80
2022-12-17T21:38:59.306Z,76.70
2022-12-17T21:41:32.909Z,76.40
2022-12-17T21:44:02.500Z,76.20
2022-12-17T21:46:30.898Z,76.40
2022-12-17T21:49:00.026Z,76.50
2022-12-17T21:51:27.262Z,76.60
2022-12-17T21:54:08.424Z,76.50
2022-12-17T21:56:36.148Z,76.40
2022-12-17T21:59:02.965Z,76.10
2022-12-17T22:01:33.915Z,75.70
2022-12-17T22:04:03.104Z,75.80
2022-12-17T22:06:37.204Z,76.00
2022-12-17T22:09:22.169Z,76.30
2022-12-17T22:12:19.396Z,76.40
2022-12-17T22:14:47.036Z,76.40
2022-12-17T22:17:13.897Z,76.30
2022-12-17T22:19:41.288Z,76.10
2022-12-17T22:22:08.167Z,76.20
2022-12-17T22:24:36.539Z,76.30
2022-12-17T22:27:03.882Z,76.00
2022-12-17T22:29:51.079Z,76.00
2022-12-17T22:32:36.563Z,76.10
2022-12-17T22:36:10.193Z,76.30
2022-12-17T22:43:41.166Z,76.30
2022-12-17T22:44:31.971Z,76.20
2022-12-17T22:44:42.077Z,76.30
2022-12-17T22:46:19.539Z,76.30
2022-12-17T22:48:47.460Z,76.30
2022-12-17T22:51:18.748Z,76.30
2022-12-17T22:54:04.721Z,76.10
2022-12-17T22:57:15.953Z,76.20
2022-12-17T22:59:21.554Z,76.30
2022-12-17T23:01:48.602Z,76.50
2022-12-17T23:04:16.762Z,76.50
2022-12-17T23:06:47.854Z,76.40
2022-12-17T23:09:19.170Z,76.30
2022-12-17T23:11:48.212Z,76.50
2022-12-17T23:14:15.584Z,76.60
2022-12-17T23:16:42.426Z,76.70
2022-12-17T23:19:10.519Z,76.80
2022-12-17T23:21:37.557Z,77.10
2022-12-17T23:24:05.336Z,77.10
2022-12-17T23:26:35.968Z,77.10
2022-12-17T23:29:05.949Z,76.90
2022-12-17T23:31:36.099Z,76.90
2022-12-17T23:34:03.885Z,76.80
2022-12-17T23:36:30.737Z,76.80
2022-12-17T23:38:57.854Z,76.90
2022-12-17T23:41:27.489Z,77.00
2022-12-17T23:43:54.951Z,76.90
2022-12-17T23:46:23.685Z,76.80
2022-12-17T23:48:51.071Z,76.50
2022-12-17T23:51:19.471Z,76.50
2022-12-17T23:53:46.338Z,76.70
2022-12-17T23:56:20.074Z,76.90
2022-12-17T23:58:48.303Z,76.90
